Ferdinand, Vermont
Current Conditions -  °F | °C
As of 8:03 PM on Tuesday 27 Jan 2015 (Local Time) from KBML Reporting Station
Light Snow Light Snow  
Wind Chill: -3°   Ceiling: 900
Heat Index:   Visibility: 0.75mi
Dew Point:   Wind: 7mph
Humidity: 76%   Direction: 330°NNW
Pressure: 29.71"   Gusts: NA
Location:  44.7348°N, 71.6296°W
Report Text: KBML 280103Z AUTO 33006KT 3/4SM -SN VV009 M13/M17 A2971 RMK AO2 P0001 T11331167
Loading
Personal Weather Stations






























Interactive Weather Map New forecast layout! Learn more

10-Day Weather Forecast

Advertisements
Track Severe Weather on mobile